ADDS METAR Data INFO
IDs: Format: Raw Decoded Include TAF

Data at: 0931 UTC 11 Dec 2017

KGUL 110915Z AUTO 00000KT 10SM 19/09 A3035 RMK A01
KGUL 110855Z AUTO 00000KT 10SM 19/09 A3034 RMK A01
KGUL 110835Z AUTO 00000KT 10SM 19/09 A3035 RMK A01
KGUL 110815Z AUTO 00000KT 10SM 19/09 A3035 RMK A01
KGUL 110755Z AUTO 00000KT 10SM 19/09 A3035 RMK A01
KGUL 110735Z AUTO 00000KT 10SM 19/09 A3035 RMK A01
KGUL 110715Z AUTO 00000KT 10SM 19/09 A3035 RMK A01
KGUL 110655Z AUTO 00000KT 10SM 19/09 A3035 RMK A01
KGUL 110635Z AUTO 00000KT 10SM 19/09 A3036 RMK A01
KGUL 110615Z AUTO 00000KT 10SM 19/08 A3037 RMK A01
KGUL 110555Z AUTO 00000KT 10SM 19/08 A3037 RMK A01
KGUL 110535Z AUTO 00000KT 10SM 19/07 A3038 RMK A01
KGUL 110515Z AUTO 00000KT 10SM 19/07 A3038 RMK A01
KGUL 110455Z AUTO 00000KT 10SM 19/07 A3038 RMK A01
KGUL 110435Z AUTO 00000KT 10SM 19/07 A3038 RMK A01
KGUL 110415Z AUTO 00000KT 10SM 19/07 A3038 RMK A01
KGUL 110355Z AUTO 00000KT 10SM 19/07 A3039 RMK A01
KGUL 110335Z AUTO 00000KT 10SM 19/07 A3039 RMK A01
KGUL 110315Z AUTO 00000KT 10SM 18/07 A3039 RMK A01
KGUL 110255Z AUTO 00000KT 10SM 19/07 A3039 RMK A01
KGUL 110235Z AUTO 00000KT 10SM 19/07 A3040 RMK A01
KGUL 110215Z AUTO 00000KT 10SM 19/07 A3040 RMK A01
KGUL 110155Z AUTO 00000KT 10SM 19/07 A3040 RMK A01
KGUL 110135Z AUTO 00000KT 10SM 18/07 A3040 RMK A01
KGUL 110115Z AUTO 00000KT 10SM 18/07 A3040 RMK A01
KGUL 110055Z AUTO 00000KT 10SM 19/07 A3039 RMK A01
KGUL 110035Z AUTO 00000KT 10SM 19/07 A3039 RMK A01
KGUL 110015Z AUTO 00000KT 10SM 18/07 A3039 RMK A01
KGUL 102355Z AUTO 00000KT 10SM 18/07 A3038 RMK A01
KGUL 102335Z AUTO 00000KT 10SM 18/07 A3038 RMK A01
KGUL 102315Z AUTO 00000KT 10SM FEW046 FEW090 19/07 A3038 RMK A01
KGUL 102255Z AUTO 00000KT 10SM FEW046 20/07 A3038 RMK A01
KGUL 102235Z AUTO 00000KT 10SM FEW046 20/07 A3038 RMK A01
KGUL 102215Z AUTO 00000KT 10SM CLR 20/07 A3038 RMK A01
KGUL 102155Z AUTO 00000KT 10SM BKN046 BKN090 19/07 A3037 RMK A01
KGUL 102135Z AUTO 00000KT 10SM SCT045 20/07 A3037 RMK A01
KGUL 102115Z AUTO 00000KT 10SM CLR 20/07 A3037 RMK A01
KGUL 102055Z AUTO 00000KT 10SM FEW045 20/07 A3038 RMK A01
KGUL 102035Z AUTO 00000KT 10SM FEW045 20/07 A3038 RMK A01
KGUL 102015Z AUTO 00000KT 10SM FEW045 20/07 A3038 RMK A01
KGUL 101955Z AUTO 00000KT 10SM FEW085 20/07 A3038 RMK A01
KGUL 101935Z AUTO 00000KT 10SM FEW011 SCT085 20/07 A3038 RMK A01
KGUL 101915Z AUTO 00000KT 10SM FEW003 FEW010 SCT090 20/07 A3038 RMK A01
KGUL 101855Z AUTO 00000KT 10SM 20/07 A3039 RMK A01
KGUL 101835Z AUTO 00000KT 10SM 18/07 A3039 RMK A01
KGUL 101815Z AUTO 07005KT 10SM 18/07 A3040 RMK A01
KGUL 101755Z AUTO 03004KT 10SM 18/07 A3041 RMK A01
KGUL 101735Z AUTO 07005KT 10SM 18/07 A3041 RMK A01
KGUL 101715Z AUTO 00000KT 10SM FEW010 FEW044 BKN090 18/07 A3043 RMK A01
KGUL 101655Z AUTO VRB03KT 10SM FEW011 FEW044 BKN090 18/07 A3043 RMK A01
KGUL 101635Z AUTO 00000KT 10SM FEW011 BKN090 18/07 A3043 RMK A01
KGUL 101615Z AUTO VRB03KT 10SM FEW010 OVC090 18/07 A3043 RMK A01
KGUL 101555Z AUTO 07004KT 10SM 17/07 A3043 RMK A01
KGUL 101535Z AUTO 06006KT 10SM 17/06 A3043 RMK A01
KGUL 101515Z AUTO VRB03KT 10SM 17/06 A3043 RMK A01
KGUL 101455Z AUTO 08007KT 10SM 17/06 A3042 RMK A01
KGUL 101435Z AUTO VRB03G11KT 10SM 17/06 A3041 RMK A01
KGUL 101415Z AUTO VRB05KT 10SM 17/06 A3041 RMK A01
KGUL 101355Z AUTO 04007G12KT 340V060 10SM 17/06 A3040 RMK A01
KGUL 101335Z AUTO 06007KT 10SM 17/06 A3040 RMK A01
KGUL 101315Z AUTO 03006G11KT 10SM 17/06 A3039 RMK A01
KGUL 101255Z AUTO 04005G11KT 10SM 17/06 A3039 RMK A01
KGUL 101235Z AUTO VRB05G13KT 10SM 17/06 A3038 RMK A01
KGUL 101215Z AUTO VRB06KT 10SM 17/05 A3037 RMK A01
KGUL 101155Z AUTO VRB05G13KT 10SM 17/06 A3036 RMK A01
KGUL 101135Z AUTO VRB06G15KT 10SM 17/07 A3035 RMK A01
KGUL 101115Z AUTO 03005G14KT 10SM 17/06 A3034 RMK A01
KGUL 101055Z AUTO 03008G16KT 10SM 17/06 A3034 RMK A01
KGUL 101035Z AUTO 00000KT 10SM 17/05 A3034 RMK A01
KGUL 101015Z AUTO 00000KT 10SM 17/06 A3035 RMK A01
KGUL 100955Z AUTO 00000KT 10SM 17/06 A3035 RMK A01
KGUL 100935Z AUTO 00000G12KT 10SM 17/06 A3035 RMK A01
KGUL 100915Z AUTO VRB04G10KT 10SM 17/06 A3034 RMK A01
KGUL 100855Z AUTO 02008G15KT 10SM 17/05 A3033 RMK A01
KGUL 100835Z AUTO 00000KT 10SM 17/05 A3033 RMK A01
KGUL 100815Z AUTO 02007G13KT 10SM 17/05 A3033 RMK A01
KGUL 100755Z AUTO VRB05G11KT 10SM 17/05 A3033 RMK A01
KGUL 100735Z AUTO 00000KT 10SM 17/05 A3034 RMK A01
KGUL 100715Z AUTO 00000KT 10SM 17/05 A3035 RMK A01
KGUL 100655Z AUTO 00000KT 10SM 17/05 A3035 RMK A01
KGUL 100635Z AUTO 00000KT 10SM 17/05 A3036 RMK A01
KGUL 100615Z AUTO 00000KT 10SM 17/05 A3035 RMK A01
KGUL 100555Z AUTO 00000KT 10SM 17/05 A3034 RMK A01
KGUL 100535Z AUTO 00000G10KT 10SM 17/05 A3034 RMK A01
KGUL 100515Z AUTO 00000KT 10SM 17/06 A3034 RMK A01
KGUL 100455Z AUTO VRB03KT 10SM 17/05 A3034 RMK A01
KGUL 100435Z AUTO 00000KT 10SM 17/05 A3034 RMK A01
KGUL 100415Z AUTO 00000KT 10SM 17/05 A3033 RMK A01
KGUL 100355Z AUTO 00000KT 10SM 17/05 A3033 RMK A01
KGUL 100335Z AUTO 00000KT 10SM 18/05 A3033 RMK A01
KGUL 100315Z AUTO 00000KT 10SM 17/04 A3033 RMK A01
KGUL 100255Z AUTO 00000KT 10SM 17/05 A3032 RMK A01
KGUL 100235Z AUTO 00000KT 10SM 17/05 A3031 RMK A01
KGUL 100215Z AUTO 00000KT 10SM 18/04 A3030 RMK A01
KGUL 100155Z AUTO 00000KT 10SM 18/05 A3030 RMK A01
KGUL 100135Z AUTO 00000KT 10SM 18/05 A3029 RMK A01
KGUL 100115Z AUTO 00000KT 10SM 18/05 A3028 RMK A01
KGUL 100055Z AUTO 00000KT 10SM 18/05 A3027 RMK A01
KGUL 100035Z AUTO 00000KT 10SM 17/05 A3027 RMK A01
KGUL 100015Z AUTO 00000KT 10SM 17/04 A3026 RMK A01
KGUL 092355Z AUTO 00000KT 10SM 18/04 A3026 RMK A01
KGUL 092335Z AUTO 00000KT 10SM 18/05 A3026 RMK A01
KGUL 092315Z AUTO 00000KT 10SM 18/05 A3025 RMK A01
KGUL 092255Z AUTO 00000KT 10SM 18/04 A3025 RMK A01
KGUL 092235Z AUTO 00000KT 10SM 18/04 A3024 RMK A01
KGUL 092215Z AUTO 00000KT 10SM 19/04 A3023 RMK A01
KGUL 092155Z AUTO 00000KT 10SM 18/05 A3022 RMK A01
KGUL 092135Z AUTO 00000KT 10SM 18/04 A3022 RMK A01